sensor_id;sensor_type;location;lat;lon;timestamp;P1;durP1;ratioP1;P2;durP2;ratioP2
28455;SDS011;15682;56.742;38.866;2024-02-16T00:00:41;12.6;;;5.6;;
28455;SDS011;15682;56.742;38.866;2024-02-16T00:02:41;12.1;;;5.4;;
28455;SDS011;15682;56.742;38.866;2024-02-16T00:04:41;11.1;;;5.6;;
28455;SDS011;15682;56.742;38.866;2024-02-16T00:06:41;11.0;;;5.2;;
28455;SDS011;15682;56.742;38.866;2024-02-16T00:08:41;9.6;;;4.8;;
28455;SDS011;15682;56.742;38.866;2024-02-16T00:10:40;10.4;;;5.2;;
28455;SDS011;15682;56.742;38.866;2024-02-16T00:12:39;11.0;;;5.2;;
28455;SDS011;15682;56.742;38.866;2024-02-16T00:14:39;12.2;;;5.0;;
28455;SDS011;15682;56.742;38.866;2024-02-16T00:16:39;12.3;;;5.4;;
28455;SDS011;15682;56.742;38.866;2024-02-16T00:18:38;9.5;;;4.8;;
28455;SDS011;15682;56.742;38.866;2024-02-16T00:20:38;10.8;;;5.6;;
28455;SDS011;15682;56.742;38.866;2024-02-16T00:22:38;11.8;;;5.2;;
28455;SDS011;15682;56.742;38.866;2024-02-16T00:24:38;12.9;;;5.8;;
28455;SDS011;15682;56.742;38.866;2024-02-16T00:26:37;11.6;;;5.4;;
28455;SDS011;15682;56.742;38.866;2024-02-16T00:28:37;11.7;;;5.7;;
28455;SDS011;15682;56.742;38.866;2024-02-16T00:30:37;10.4;;;5.2;;
28455;SDS011;15682;56.742;38.866;2024-02-16T00:32:36;10.7;;;5.1;;
28455;SDS011;15682;56.742;38.866;2024-02-16T00:34:36;9.8;;;4.9;;
28455;SDS011;15682;56.742;38.866;2024-02-16T00:36:36;9.8;;;5.5;;
28455;SDS011;15682;56.742;38.866;2024-02-16T00:38:35;12.3;;;5.4;;
28455;SDS011;15682;56.742;38.866;2024-02-16T00:40:35;12.3;;;5.3;;
28455;SDS011;15682;56.742;38.866;2024-02-16T00:42:35;13.8;;;5.3;;
28455;SDS011;15682;56.742;38.866;2024-02-16T00:44:35;23.0;;;5.8;;
28455;SDS011;15682;56.742;38.866;2024-02-16T00:46:35;10.3;;;5.0;;
28455;SDS011;15682;56.742;38.866;2024-02-16T00:48:34;10.4;;;4.7;;
28455;SDS011;15682;56.742;38.866;2024-02-16T00:50:34;9.9;;;5.1;;
28455;SDS011;15682;56.742;38.866;2024-02-16T00:52:33;12.2;;;5.2;;
28455;SDS011;15682;56.742;38.866;2024-02-16T00:54:33;10.9;;;5.6;;
28455;SDS011;15682;56.742;38.866;2024-02-16T00:56:33;11.4;;;5.2;;
28455;SDS011;15682;56.742;38.866;2024-02-16T00:58:33;10.6;;;5.4;;
28455;SDS011;15682;56.742;38.866;2024-02-16T01:00:32;13.2;;;5.5;;
28455;SDS011;15682;56.742;38.866;2024-02-16T01:02:32;15.0;;;5.6;;
28455;SDS011;15682;56.742;38.866;2024-02-16T01:04:32;11.1;;;5.2;;
28455;SDS011;15682;56.742;38.866;2024-02-16T01:06:31;13.1;;;5.6;;
28455;SDS011;15682;56.742;38.866;2024-02-16T01:08:31;12.5;;;5.6;;
28455;SDS011;15682;56.742;38.866;2024-02-16T01:10:31;15.7;;;6.4;;
28455;SDS011;15682;56.742;38.866;2024-02-16T01:12:30;11.7;;;5.3;;
28455;SDS011;15682;56.742;38.866;2024-02-16T01:14:30;13.1;;;5.8;;
28455;SDS011;15682;56.742;38.866;2024-02-16T01:16:30;13.0;;;6.3;;
28455;SDS011;15682;56.742;38.866;2024-02-16T01:18:30;10.0;;;5.1;;
28455;SDS011;15682;56.742;38.866;2024-02-16T01:20:29;12.5;;;5.6;;
28455;SDS011;15682;56.742;38.866;2024-02-16T01:22:29;10.4;;;4.9;;
28455;SDS011;15682;56.742;38.866;2024-02-16T01:24:29;12.1;;;5.4;;
28455;SDS011;15682;56.742;38.866;2024-02-16T01:26:29;12.1;;;5.6;;
28455;SDS011;15682;56.742;38.866;2024-02-16T01:28:28;12.9;;;6.0;;
28455;SDS011;15682;56.742;38.866;2024-02-16T01:30:28;10.5;;;5.4;;
28455;SDS011;15682;56.742;38.866;2024-02-16T01:32:28;11.4;;;5.6;;
28455;SDS011;15682;56.742;38.866;2024-02-16T01:34:27;11.7;;;5.5;;
28455;SDS011;15682;56.742;38.866;2024-02-16T01:36:27;13.7;;;5.9;;
28455;SDS011;15682;56.742;38.866;2024-02-16T01:38:27;8.8;;;4.6;;
28455;SDS011;15682;56.742;38.866;2024-02-16T01:40:27;13.9;;;5.8;;
28455;SDS011;15682;56.742;38.866;2024-02-16T01:42:26;11.6;;;5.5;;
28455;SDS011;15682;56.742;38.866;2024-02-16T01:44:26;11.0;;;5.2;;
28455;SDS011;15682;56.742;38.866;2024-02-16T01:46:26;13.8;;;5.4;;
28455;SDS011;15682;56.742;38.866;2024-02-16T01:48:26;12.4;;;5.2;;
28455;SDS011;15682;56.742;38.866;2024-02-16T01:50:25;11.8;;;5.4;;
28455;SDS011;15682;56.742;38.866;2024-02-16T01:52:25;11.9;;;5.3;;
28455;SDS011;15682;56.742;38.866;2024-02-16T01:54:24;11.2;;;5.1;;
28455;SDS011;15682;56.742;38.866;2024-02-16T01:56:24;10.8;;;5.1;;
28455;SDS011;15682;56.742;38.866;2024-02-16T01:58:24;11.6;;;5.6;;
28455;SDS011;15682;56.742;38.866;2024-02-16T02:00:24;10.8;;;5.6;;
28455;SDS011;15682;56.742;38.866;2024-02-16T02:02:23;10.8;;;5.0;;
28455;SDS011;15682;56.742;38.866;2024-02-16T02:04:23;12.8;;;5.7;;
28455;SDS011;15682;56.742;38.866;2024-02-16T02:06:23;12.3;;;5.9;;
28455;SDS011;15682;56.742;38.866;2024-02-16T02:08:23;13.4;;;6.2;;
28455;SDS011;15682;56.742;38.866;2024-02-16T02:10:22;11.3;;;5.4;;
28455;SDS011;15682;56.742;38.866;2024-02-16T02:12:22;11.4;;;5.2;;
28455;SDS011;15682;56.742;38.866;2024-02-16T02:14:22;16.4;;;5.5;;
28455;SDS011;15682;56.742;38.866;2024-02-16T02:16:21;11.7;;;6.0;;
28455;SDS011;15682;56.742;38.866;2024-02-16T02:18:21;13.1;;;5.7;;
28455;SDS011;15682;56.742;38.866;2024-02-16T02:20:21;11.7;;;6.0;;
28455;SDS011;15682;56.742;38.866;2024-02-16T02:22:21;11.6;;;5.3;;
28455;SDS011;15682;56.742;38.866;2024-02-16T02:24:20;12.6;;;6.2;;
28455;SDS011;15682;56.742;38.866;2024-02-16T02:26:20;11.2;;;5.1;;
28455;SDS011;15682;56.742;38.866;2024-02-16T02:28:20;11.4;;;5.6;;
28455;SDS011;15682;56.742;38.866;2024-02-16T02:30:19;13.2;;;5.8;;
28455;SDS011;15682;56.742;38.866;2024-02-16T02:32:19;12.1;;;5.5;;
28455;SDS011;15682;56.742;38.866;2024-02-16T02:34:19;11.6;;;5.8;;
28455;SDS011;15682;56.742;38.866;2024-02-16T02:36:19;12.4;;;5.1;;
28455;SDS011;15682;56.742;38.866;2024-02-16T02:38:18;11.2;;;5.2;;
28455;SDS011;15682;56.742;38.866;2024-02-16T02:40:18;11.8;;;5.5;;
28455;SDS011;15682;56.742;38.866;2024-02-16T02:42:18;11.6;;;5.5;;
28455;SDS011;15682;56.742;38.866;2024-02-16T02:44:17;12.3;;;5.7;;
28455;SDS011;15682;56.742;38.866;2024-02-16T02:46:17;11.2;;;5.3;;
28455;SDS011;15682;56.742;38.866;2024-02-16T02:48:17;12.4;;;5.7;;
28455;SDS011;15682;56.742;38.866;2024-02-16T02:50:17;10.9;;;5.7;;
28455;SDS011;15682;56.742;38.866;2024-02-16T02:52:16;13.1;;;5.4;;
28455;SDS011;15682;56.742;38.866;2024-02-16T02:54:16;13.5;;;5.7;;
28455;SDS011;15682;56.742;38.866;2024-02-16T02:56:16;12.4;;;6.3;;
28455;SDS011;15682;56.742;38.866;2024-02-16T02:58:15;11.2;;;6.0;;
28455;SDS011;15682;56.742;38.866;2024-02-16T03:00:16;12.8;;;6.0;;
28455;SDS011;15682;56.742;38.866;2024-02-16T03:02:15;11.0;;;5.6;;
28455;SDS011;15682;56.742;38.866;2024-02-16T03:04:15;13.1;;;5.6;;
28455;SDS011;15682;56.742;38.866;2024-02-16T03:06:17;10.9;;;5.6;;
28455;SDS011;15682;56.742;38.866;2024-02-16T03:08:14;11.9;;;6.1;;
28455;SDS011;15682;56.742;38.866;2024-02-16T03:10:14;12.2;;;5.7;;
28455;SDS011;15682;56.742;38.866;2024-02-16T03:12:14;11.6;;;6.2;;
28455;SDS011;15682;56.742;38.866;2024-02-16T03:14:13;11.0;;;5.8;;
28455;SDS011;15682;56.742;38.866;2024-02-16T03:16:13;12.2;;;5.8;;
28455;SDS011;15682;56.742;38.866;2024-02-16T03:18:13;12.2;;;5.5;;
28455;SDS011;15682;56.742;38.866;2024-02-16T03:20:13;11.2;;;5.4;;
28455;SDS011;15682;56.742;38.866;2024-02-16T03:22:12;13.7;;;5.3;;
28455;SDS011;15682;56.742;38.866;2024-02-16T03:24:12;11.9;;;5.6;;
28455;SDS011;15682;56.742;38.866;2024-02-16T03:26:13;14.1;;;6.1;;
28455;SDS011;15682;56.742;38.866;2024-02-16T03:28:12;12.1;;;5.6;;
28455;SDS011;15682;56.742;38.866;2024-02-16T03:30:11;12.3;;;6.0;;
28455;SDS011;15682;56.742;38.866;2024-02-16T03:32:11;12.9;;;5.8;;
28455;SDS011;15682;56.742;38.866;2024-02-16T03:34:11;13.2;;;6.3;;
28455;SDS011;15682;56.742;38.866;2024-02-16T03:36:10;13.8;;;6.6;;
28455;SDS011;15682;56.742;38.866;2024-02-16T03:38:10;12.9;;;5.9;;
28455;SDS011;15682;56.742;38.866;2024-02-16T03:40:10;10.9;;;5.8;;
28455;SDS011;15682;56.742;38.866;2024-02-16T03:42:09;11.1;;;5.4;;
28455;SDS011;15682;56.742;38.866;2024-02-16T03:44:09;14.4;;;5.8;;
28455;SDS011;15682;56.742;38.866;2024-02-16T03:46:09;12.4;;;5.7;;
28455;SDS011;15682;56.742;38.866;2024-02-16T03:48:09;13.3;;;5.7;;
28455;SDS011;15682;56.742;38.866;2024-02-16T03:50:09;11.8;;;5.7;;
28455;SDS011;15682;56.742;38.866;2024-02-16T03:52:08;11.5;;;5.5;;
28455;SDS011;15682;56.742;38.866;2024-02-16T03:54:08;12.8;;;6.1;;
28455;SDS011;15682;56.742;38.866;2024-02-16T03:56:07;11.2;;;5.7;;
28455;SDS011;15682;56.742;38.866;2024-02-16T03:58:07;12.7;;;5.9;;
28455;SDS011;15682;56.742;38.866;2024-02-16T04:00:07;11.6;;;5.7;;
28455;SDS011;15682;56.742;38.866;2024-02-16T04:02:07;12.8;;;5.9;;
28455;SDS011;15682;56.742;38.866;2024-02-16T04:04:06;12.8;;;6.1;;
28455;SDS011;15682;56.742;38.866;2024-02-16T04:06:07;14.0;;;6.3;;
28455;SDS011;15682;56.742;38.866;2024-02-16T04:08:06;13.4;;;5.9;;
28455;SDS011;15682;56.742;38.866;2024-02-16T04:10:06;11.3;;;5.7;;
28455;SDS011;15682;56.742;38.866;2024-02-16T04:12:06;13.8;;;6.2;;
28455;SDS011;15682;56.742;38.866;2024-02-16T04:14:05;12.3;;;5.8;;
28455;SDS011;15682;56.742;38.866;2024-02-16T04:16:05;11.6;;;6.2;;
28455;SDS011;15682;56.742;38.866;2024-02-16T04:18:05;11.3;;;5.6;;
28455;SDS011;15682;56.742;38.866;2024-02-16T04:20:05;13.3;;;5.9;;
28455;SDS011;15682;56.742;38.866;2024-02-16T04:22:04;24.6;;;6.4;;
28455;SDS011;15682;56.742;38.866;2024-02-16T04:24:04;12.2;;;5.8;;
28455;SDS011;15682;56.742;38.866;2024-02-16T04:26:03;12.4;;;6.3;;
28455;SDS011;15682;56.742;38.866;2024-02-16T04:28:03;14.7;;;6.5;;
28455;SDS011;15682;56.742;38.866;2024-02-16T04:30:03;13.6;;;6.2;;
28455;SDS011;15682;56.742;38.866;2024-02-16T04:32:03;14.1;;;6.8;;
28455;SDS011;15682;56.742;38.866;2024-02-16T04:34:02;15.0;;;6.8;;
28455;SDS011;15682;56.742;38.866;2024-02-16T04:36:02;14.3;;;6.9;;
28455;SDS011;15682;56.742;38.866;2024-02-16T04:38:02;13.9;;;6.7;;
28455;SDS011;15682;56.742;38.866;2024-02-16T04:40:01;15.8;;;7.3;;
28455;SDS011;15682;56.742;38.866;2024-02-16T04:42:01;12.7;;;6.2;;
28455;SDS011;15682;56.742;38.866;2024-02-16T04:44:01;13.7;;;7.3;;
28455;SDS011;15682;56.742;38.866;2024-02-16T04:46:00;14.0;;;6.6;;
28455;SDS011;15682;56.742;38.866;2024-02-16T04:48:02;15.2;;;6.8;;
28455;SDS011;15682;56.742;38.866;2024-02-16T04:50:00;15.7;;;7.2;;
28455;SDS011;15682;56.742;38.866;2024-02-16T04:52:00;19.1;;;6.7;;
28455;SDS011;15682;56.742;38.866;2024-02-16T04:53:59;15.3;;;7.2;;
28455;SDS011;15682;56.742;38.866;2024-02-16T04:55:59;13.0;;;6.3;;
28455;SDS011;15682;56.742;38.866;2024-02-16T04:57:59;15.1;;;6.9;;
28455;SDS011;15682;56.742;38.866;2024-02-16T04:59:58;15.1;;;6.8;;
28455;SDS011;15682;56.742;38.866;2024-02-16T05:01:58;12.4;;;6.4;;
28455;SDS011;15682;56.742;38.866;2024-02-16T05:03:58;16.9;;;6.9;;
28455;SDS011;15682;56.742;38.866;2024-02-16T05:05:58;12.3;;;6.6;;
28455;SDS011;15682;56.742;38.866;2024-02-16T05:07:57;15.3;;;6.5;;
28455;SDS011;15682;56.742;38.866;2024-02-16T05:09:57;16.7;;;7.2;;
28455;SDS011;15682;56.742;38.866;2024-02-16T05:11:57;15.4;;;7.3;;
28455;SDS011;15682;56.742;38.866;2024-02-16T05:13:56;15.8;;;7.1;;
28455;SDS011;15682;56.742;38.866;2024-02-16T05:15:56;17.2;;;7.4;;
28455;SDS011;15682;56.742;38.866;2024-02-16T05:17:56;15.4;;;7.2;;
28455;SDS011;15682;56.742;38.866;2024-02-16T05:19:55;14.8;;;6.7;;
28455;SDS011;15682;56.742;38.866;2024-02-16T05:21:56;14.3;;;7.1;;
28455;SDS011;15682;56.742;38.866;2024-02-16T05:23:55;15.1;;;7.0;;
28455;SDS011;15682;56.742;38.866;2024-02-16T05:25:55;21.5;;;7.6;;
28455;SDS011;15682;56.742;38.866;2024-02-16T05:27:54;20.2;;;7.9;;
28455;SDS011;15682;56.742;38.866;2024-02-16T05:29:54;17.9;;;7.1;;
28455;SDS011;15682;56.742;38.866;2024-02-16T05:31:54;17.2;;;7.2;;
28455;SDS011;15682;56.742;38.866;2024-02-16T05:33:53;16.5;;;7.3;;
28455;SDS011;15682;56.742;38.866;2024-02-16T05:35:53;15.4;;;7.2;;
28455;SDS011;15682;56.742;38.866;2024-02-16T05:37:53;15.3;;;7.4;;
28455;SDS011;15682;56.742;38.866;2024-02-16T05:39:53;15.4;;;6.9;;
28455;SDS011;15682;56.742;38.866;2024-02-16T05:41:52;16.1;;;6.7;;
28455;SDS011;15682;56.742;38.866;2024-02-16T05:43:52;17.3;;;7.2;;
28455;SDS011;15682;56.742;38.866;2024-02-16T05:45:52;14.0;;;6.8;;
28455;SDS011;15682;56.742;38.866;2024-02-16T05:47:52;18.3;;;6.5;;
28455;SDS011;15682;56.742;38.866;2024-02-16T05:49:51;13.4;;;6.4;;
28455;SDS011;15682;56.742;38.866;2024-02-16T05:51:51;16.6;;;6.7;;
28455;SDS011;15682;56.742;38.866;2024-02-16T05:53:51;11.9;;;6.3;;
28455;SDS011;15682;56.742;38.866;2024-02-16T05:55:50;14.4;;;6.8;;
28455;SDS011;15682;56.742;38.866;2024-02-16T05:57:50;15.4;;;6.8;;
28455;SDS011;15682;56.742;38.866;2024-02-16T05:59:50;11.9;;;6.4;;
28455;SDS011;15682;56.742;38.866;2024-02-16T06:01:49;15.2;;;6.9;;
28455;SDS011;15682;56.742;38.866;2024-02-16T06:03:49;14.1;;;6.5;;
28455;SDS011;15682;56.742;38.866;2024-02-16T06:05:49;12.1;;;6.6;;
28455;SDS011;15682;56.742;38.866;2024-02-16T06:07:49;13.2;;;6.6;;
28455;SDS011;15682;56.742;38.866;2024-02-16T06:09:48;13.9;;;6.5;;
28455;SDS011;15682;56.742;38.866;2024-02-16T06:11:48;13.5;;;6.1;;
28455;SDS011;15682;56.742;38.866;2024-02-16T06:13:48;14.4;;;6.4;;
28455;SDS011;15682;56.742;38.866;2024-02-16T06:15:48;13.1;;;6.0;;
28455;SDS011;15682;56.742;38.866;2024-02-16T06:17:48;13.7;;;6.1;;
28455;SDS011;15682;56.742;38.866;2024-02-16T06:19:47;14.0;;;5.9;;
28455;SDS011;15682;56.742;38.866;2024-02-16T06:21:47;14.0;;;6.6;;
28455;SDS011;15682;56.742;38.866;2024-02-16T06:23:47;13.3;;;6.2;;
28455;SDS011;15682;56.742;38.866;2024-02-16T06:25:46;13.3;;;6.2;;
28455;SDS011;15682;56.742;38.866;2024-02-16T06:27:46;15.7;;;6.6;;
28455;SDS011;15682;56.742;38.866;2024-02-16T06:29:46;12.0;;;6.4;;
28455;SDS011;15682;56.742;38.866;2024-02-16T06:31:45;12.7;;;6.5;;
28455;SDS011;15682;56.742;38.866;2024-02-16T06:33:45;15.7;;;6.9;;
28455;SDS011;15682;56.742;38.866;2024-02-16T06:35:45;23.6;;;7.6;;
28455;SDS011;15682;56.742;38.866;2024-02-16T06:37:45;12.2;;;6.4;;
28455;SDS011;15682;56.742;38.866;2024-02-16T06:39:44;14.0;;;6.4;;
28455;SDS011;15682;56.742;38.866;2024-02-16T06:41:45;13.9;;;7.2;;
28455;SDS011;15682;56.742;38.866;2024-02-16T06:43:44;13.6;;;6.4;;
28455;SDS011;15682;56.742;38.866;2024-02-16T06:45:44;12.8;;;6.2;;
28455;SDS011;15682;56.742;38.866;2024-02-16T06:47:43;15.1;;;6.8;;
28455;SDS011;15682;56.742;38.866;2024-02-16T06:49:43;13.3;;;6.5;;
28455;SDS011;15682;56.742;38.866;2024-02-16T06:51:43;14.4;;;6.5;;
28455;SDS011;15682;56.742;38.866;2024-02-16T06:53:43;16.0;;;6.4;;
28455;SDS011;15682;56.742;38.866;2024-02-16T06:55:42;16.0;;;6.6;;
28455;SDS011;15682;56.742;38.866;2024-02-16T06:57:42;12.5;;;6.2;;
28455;SDS011;15682;56.742;38.866;2024-02-16T06:59:42;13.6;;;6.4;;
28455;SDS011;15682;56.742;38.866;2024-02-16T07:01:42;12.1;;;6.2;;
28455;SDS011;15682;56.742;38.866;2024-02-16T07:03:42;12.8;;;6.4;;
28455;SDS011;15682;56.742;38.866;2024-02-16T07:05:41;11.6;;;6.1;;
28455;SDS011;15682;56.742;38.866;2024-02-16T07:07:41;12.1;;;5.9;;
28455;SDS011;15682;56.742;38.866;2024-02-16T07:09:41;12.5;;;6.3;;
28455;SDS011;15682;56.742;38.866;2024-02-16T07:11:40;12.7;;;6.3;;
28455;SDS011;15682;56.742;38.866;2024-02-16T07:13:40;13.4;;;6.2;;
28455;SDS011;15682;56.742;38.866;2024-02-16T07:15:40;14.0;;;6.5;;
28455;SDS011;15682;56.742;38.866;2024-02-16T07:17:39;13.7;;;6.0;;
28455;SDS011;15682;56.742;38.866;2024-02-16T07:19:39;14.4;;;6.4;;
28455;SDS011;15682;56.742;38.866;2024-02-16T07:21:39;15.0;;;6.9;;
28455;SDS011;15682;56.742;38.866;2024-02-16T07:23:39;14.3;;;6.6;;
28455;SDS011;15682;56.742;38.866;2024-02-16T07:25:38;14.1;;;6.4;;
28455;SDS011;15682;56.742;38.866;2024-02-16T07:27:38;13.2;;;6.4;;
28455;SDS011;15682;56.742;38.866;2024-02-16T07:29:38;17.4;;;7.1;;
28455;SDS011;15682;56.742;38.866;2024-02-16T07:31:38;14.0;;;6.9;;
28455;SDS011;15682;56.742;38.866;2024-02-16T07:33:38;13.2;;;6.5;;
28455;SDS011;15682;56.742;38.866;2024-02-16T07:35:37;14.7;;;6.8;;
28455;SDS011;15682;56.742;38.866;2024-02-16T07:37:37;13.8;;;6.6;;
28455;SDS011;15682;56.742;38.866;2024-02-16T07:39:37;13.4;;;6.2;;
28455;SDS011;15682;56.742;38.866;2024-02-16T07:41:36;14.7;;;6.5;;
28455;SDS011;15682;56.742;38.866;2024-02-16T07:43:36;18.9;;;7.3;;
28455;SDS011;15682;56.742;38.866;2024-02-16T07:45:36;16.5;;;7.1;;
28455;SDS011;15682;56.742;38.866;2024-02-16T07:47:36;14.9;;;6.6;;
28455;SDS011;15682;56.742;38.866;2024-02-16T07:49:37;13.9;;;6.9;;
28455;SDS011;15682;56.742;38.866;2024-02-16T07:51:35;12.3;;;6.3;;
28455;SDS011;15682;56.742;38.866;2024-02-16T07:53:35;15.2;;;6.5;;
28455;SDS011;15682;56.742;38.866;2024-02-16T07:55:35;15.3;;;6.9;;
28455;SDS011;15682;56.742;38.866;2024-02-16T07:57:35;13.9;;;7.1;;
28455;SDS011;15682;56.742;38.866;2024-02-16T07:59:34;13.4;;;6.8;;
28455;SDS011;15682;56.742;38.866;2024-02-16T08:01:34;12.6;;;6.6;;
28455;SDS011;15682;56.742;38.866;2024-02-16T08:03:34;13.9;;;6.5;;
28455;SDS011;15682;56.742;38.866;2024-02-16T08:05:34;12.7;;;6.8;;
28455;SDS011;15682;56.742;38.866;2024-02-16T08:07:33;14.4;;;7.0;;
28455;SDS011;15682;56.742;38.866;2024-02-16T08:09:33;13.9;;;6.8;;
28455;SDS011;15682;56.742;38.866;2024-02-16T08:11:33;14.2;;;6.6;;
28455;SDS011;15682;56.742;38.866;2024-02-16T08:13:33;13.8;;;6.6;;
28455;SDS011;15682;56.742;38.866;2024-02-16T08:15:32;13.5;;;6.7;;
28455;SDS011;15682;56.742;38.866;2024-02-16T08:17:32;22.0;;;7.6;;
28455;SDS011;15682;56.742;38.866;2024-02-16T08:19:33;14.0;;;6.4;;
28455;SDS011;15682;56.742;38.866;2024-02-16T08:21:32;13.1;;;6.3;;
28455;SDS011;15682;56.742;38.866;2024-02-16T08:23:31;12.9;;;6.6;;
28455;SDS011;15682;56.742;38.866;2024-02-16T08:25:31;13.2;;;6.0;;
28455;SDS011;15682;56.742;38.866;2024-02-16T08:27:31;11.2;;;6.2;;
28455;SDS011;15682;56.742;38.866;2024-02-16T08:29:31;12.3;;;6.2;;
28455;SDS011;15682;56.742;38.866;2024-02-16T08:31:30;14.0;;;6.1;;
28455;SDS011;15682;56.742;38.866;2024-02-16T08:33:30;12.4;;;6.2;;
28455;SDS011;15682;56.742;38.866;2024-02-16T08:35:30;13.6;;;6.6;;
28455;SDS011;15682;56.742;38.866;2024-02-16T08:37:30;14.5;;;6.4;;
28455;SDS011;15682;56.742;38.866;2024-02-16T08:39:30;13.0;;;6.6;;
28455;SDS011;15682;56.742;38.866;2024-02-16T08:41:29;12.3;;;6.0;;
28455;SDS011;15682;56.742;38.866;2024-02-16T08:43:29;14.2;;;6.7;;
28455;SDS011;15682;56.742;38.866;2024-02-16T08:45:29;13.7;;;6.7;;
28455;SDS011;15682;56.742;38.866;2024-02-16T08:47:29;14.6;;;6.3;;
28455;SDS011;15682;56.742;38.866;2024-02-16T08:49:28;12.8;;;6.2;;
28455;SDS011;15682;56.742;38.866;2024-02-16T08:51:28;13.3;;;6.7;;
28455;SDS011;15682;56.742;38.866;2024-02-16T08:53:28;13.7;;;6.7;;
28455;SDS011;15682;56.742;38.866;2024-02-16T08:55:28;12.7;;;6.8;;
28455;SDS011;15682;56.742;38.866;2024-02-16T08:57:27;14.0;;;6.7;;
28455;SDS011;15682;56.742;38.866;2024-02-16T08:59:27;12.6;;;6.6;;
28455;SDS011;15682;56.742;38.866;2024-02-16T09:01:30;13.7;;;7.2;;
28455;SDS011;15682;56.742;38.866;2024-02-16T09:03:27;13.0;;;6.8;;
28455;SDS011;15682;56.742;38.866;2024-02-16T09:05:27;14.0;;;7.1;;
28455;SDS011;15682;56.742;38.866;2024-02-16T09:07:27;16.9;;;7.1;;
28455;SDS011;15682;56.742;38.866;2024-02-16T09:09:26;15.5;;;7.0;;
28455;SDS011;15682;56.742;38.866;2024-02-16T09:11:26;14.8;;;7.5;;
28455;SDS011;15682;56.742;38.866;2024-02-16T09:13:26;17.0;;;6.9;;
28455;SDS011;15682;56.742;38.866;2024-02-16T09:15:25;13.1;;;6.9;;
28455;SDS011;15682;56.742;38.866;2024-02-16T09:17:25;13.7;;;6.9;;
28455;SDS011;15682;56.742;38.866;2024-02-16T09:19:25;17.2;;;7.6;;
28455;SDS011;15682;56.742;38.866;2024-02-16T09:21:25;14.9;;;7.7;;
28455;SDS011;15682;56.742;38.866;2024-02-16T09:23:25;14.6;;;6.8;;
28455;SDS011;15682;56.742;38.866;2024-02-16T09:25:24;12.3;;;6.8;;
28455;SDS011;15682;56.742;38.866;2024-02-16T09:27:24;21.4;;;8.6;;
28455;SDS011;15682;56.742;38.866;2024-02-16T09:29:24;15.3;;;6.9;;
28455;SDS011;15682;56.742;38.866;2024-02-16T09:31:24;16.0;;;7.1;;
28455;SDS011;15682;56.742;38.866;2024-02-16T09:33:24;15.2;;;7.5;;
28455;SDS011;15682;56.742;38.866;2024-02-16T09:35:23;13.2;;;7.0;;
28455;SDS011;15682;56.742;38.866;2024-02-16T09:37:23;15.3;;;6.9;;
28455;SDS011;15682;56.742;38.866;2024-02-16T09:39:23;13.9;;;6.4;;
28455;SDS011;15682;56.742;38.866;2024-02-16T09:41:23;13.8;;;6.8;;
28455;SDS011;15682;56.742;38.866;2024-02-16T09:43:24;14.4;;;7.2;;
28455;SDS011;15682;56.742;38.866;2024-02-16T09:45:22;16.2;;;7.2;;
28455;SDS011;15682;56.742;38.866;2024-02-16T09:47:22;15.6;;;7.0;;
28455;SDS011;15682;56.742;38.866;2024-02-16T09:49:22;14.3;;;7.3;;
28455;SDS011;15682;56.742;38.866;2024-02-16T09:51:22;15.5;;;7.6;;
28455;SDS011;15682;56.742;38.866;2024-02-16T09:53:24;17.0;;;7.4;;
28455;SDS011;15682;56.742;38.866;2024-02-16T09:55:21;14.9;;;7.3;;
28455;SDS011;15682;56.742;38.866;2024-02-16T09:57:21;15.2;;;7.8;;
28455;SDS011;15682;56.742;38.866;2024-02-16T09:59:21;14.9;;;7.1;;
28455;SDS011;15682;56.742;38.866;2024-02-16T10:01:21;16.9;;;7.3;;
28455;SDS011;15682;56.742;38.866;2024-02-16T10:03:24;15.4;;;7.8;;
28455;SDS011;15682;56.742;38.866;2024-02-16T10:05:21;16.2;;;7.6;;
28455;SDS011;15682;56.742;38.866;2024-02-16T10:07:30;15.8;;;7.6;;
28455;SDS011;15682;56.742;38.866;2024-02-16T10:09:23;14.9;;;7.6;;
28455;SDS011;15682;56.742;38.866;2024-02-16T10:11:20;14.2;;;7.5;;
28455;SDS011;15682;56.742;38.866;2024-02-16T10:13:19;17.1;;;7.9;;
28455;SDS011;15682;56.742;38.866;2024-02-16T10:15:20;16.1;;;8.0;;
28455;SDS011;15682;56.742;38.866;2024-02-16T10:17:20;15.9;;;8.1;;
28455;SDS011;15682;56.742;38.866;2024-02-16T10:19:19;16.9;;;8.3;;
28455;SDS011;15682;56.742;38.866;2024-02-16T10:21:26;16.1;;;8.0;;
28455;SDS011;15682;56.742;38.866;2024-02-16T10:23:18;15.6;;;7.9;;
28455;SDS011;15682;56.742;38.866;2024-02-16T10:25:18;18.0;;;7.7;;
28455;SDS011;15682;56.742;38.866;2024-02-16T10:27:18;15.4;;;7.7;;
28455;SDS011;15682;56.742;38.866;2024-02-16T10:29:19;13.8;;;7.0;;
28455;SDS011;15682;56.742;38.866;2024-02-16T10:31:18;15.3;;;7.5;;
28455;SDS011;15682;56.742;38.866;2024-02-16T10:33:17;15.7;;;8.3;;
28455;SDS011;15682;56.742;38.866;2024-02-16T10:35:17;16.0;;;7.8;;
28455;SDS011;15682;56.742;38.866;2024-02-16T10:37:17;17.3;;;7.8;;
28455;SDS011;15682;56.742;38.866;2024-02-16T10:39:17;16.0;;;8.0;;
28455;SDS011;15682;56.742;38.866;2024-02-16T10:41:17;14.7;;;8.1;;
28455;SDS011;15682;56.742;38.866;2024-02-16T10:43:17;15.8;;;8.0;;
28455;SDS011;15682;56.742;38.866;2024-02-16T10:45:16;15.8;;;7.4;;
28455;SDS011;15682;56.742;38.866;2024-02-16T10:47:16;16.4;;;7.5;;
28455;SDS011;15682;56.742;38.866;2024-02-16T10:49:16;15.2;;;7.7;;
28455;SDS011;15682;56.742;38.866;2024-02-16T10:51:16;15.5;;;7.6;;
28455;SDS011;15682;56.742;38.866;2024-02-16T10:53:17;16.7;;;7.6;;
28455;SDS011;15682;56.742;38.866;2024-02-16T10:55:15;16.0;;;7.6;;
28455;SDS011;15682;56.742;38.866;2024-02-16T10:57:16;17.6;;;7.6;;
28455;SDS011;15682;56.742;38.866;2024-02-16T10:59:15;19.9;;;8.2;;
28455;SDS011;15682;56.742;38.866;2024-02-16T11:01:15;16.4;;;8.3;;
28455;SDS011;15682;56.742;38.866;2024-02-16T11:03:16;19.6;;;8.1;;
28455;SDS011;15682;56.742;38.866;2024-02-16T11:05:14;20.0;;;9.1;;
28455;SDS011;15682;56.742;38.866;2024-02-16T11:07:15;16.8;;;8.5;;
28455;SDS011;15682;56.742;38.866;2024-02-16T11:11:14;15.6;;;8.4;;
28455;SDS011;15682;56.742;38.866;2024-02-16T11:13:13;20.8;;;8.2;;
28455;SDS011;15682;56.742;38.866;2024-02-16T11:15:13;15.4;;;7.6;;
28455;SDS011;15682;56.742;38.866;2024-02-16T11:17:13;15.3;;;7.7;;
28455;SDS011;15682;56.742;38.866;2024-02-16T11:19:13;20.7;;;8.1;;
28455;SDS011;15682;56.742;38.866;2024-02-16T11:21:13;19.5;;;8.1;;
28455;SDS011;15682;56.742;38.866;2024-02-16T11:23:12;17.8;;;8.1;;
28455;SDS011;15682;56.742;38.866;2024-02-16T11:25:12;18.3;;;8.3;;
28455;SDS011;15682;56.742;38.866;2024-02-16T11:27:12;17.1;;;8.3;;
28455;SDS011;15682;56.742;38.866;2024-02-16T11:29:12;16.2;;;7.7;;
28455;SDS011;15682;56.742;38.866;2024-02-16T11:31:12;15.8;;;8.3;;
28455;SDS011;15682;56.742;38.866;2024-02-16T11:33:11;17.6;;;7.6;;
28455;SDS011;15682;56.742;38.866;2024-02-16T11:35:12;16.4;;;7.9;;
28455;SDS011;15682;56.742;38.866;2024-02-16T11:37:12;13.9;;;8.3;;
28455;SDS011;15682;56.742;38.866;2024-02-16T11:39:12;17.5;;;8.2;;
28455;SDS011;15682;56.742;38.866;2024-02-16T11:41:11;20.0;;;8.4;;
28455;SDS011;15682;56.742;38.866;2024-02-16T11:43:10;15.2;;;7.8;;
28455;SDS011;15682;56.742;38.866;2024-02-16T11:45:10;18.3;;;8.3;;
28455;SDS011;15682;56.742;38.866;2024-02-16T11:47:10;18.1;;;8.3;;
28455;SDS011;15682;56.742;38.866;2024-02-16T11:49:10;16.2;;;7.9;;
28455;SDS011;15682;56.742;38.866;2024-02-16T11:51:10;15.6;;;8.3;;
28455;SDS011;15682;56.742;38.866;2024-02-16T11:53:09;17.8;;;8.3;;
28455;SDS011;15682;56.742;38.866;2024-02-16T11:55:10;16.0;;;7.8;;
28455;SDS011;15682;56.742;38.866;2024-02-16T11:57:09;15.3;;;8.2;;
28455;SDS011;15682;56.742;38.866;2024-02-16T11:59:09;21.8;;;8.5;;
28455;SDS011;15682;56.742;38.866;2024-02-16T12:01:10;16.6;;;8.2;;
28455;SDS011;15682;56.742;38.866;2024-02-16T12:03:09;17.5;;;8.4;;